Eatonville, Florida
Current Conditions -  °F | °C
As of 12:53 AM on Monday 26 Jan 2015 (Local Time) from KORL Reporting Station
Clear Clear  
Wind Chill: 55°   Ceiling: Unl
Heat Index: 55°   Visibility: 10mi
Dew Point: 48°   Wind: 6mph
Humidity: 77%   Direction: 200°SSW
Pressure: 29.93"   Gusts: NA
Location:  28.6318°N, 81.3625°W
Report Text: KORL 260553Z AUTO 20005KT 10SM CLR 13/09 A2993 RMK AO2 SLP140 T01280089 10150 20122 56019
Loading
Personal Weather Stations






























Interactive Weather Map New forecast layout! Learn more

10-Day Weather Forecast

Advertisements
Track Severe Weather on mobile